Time;durP1;ratioP1;P1;durP2;ratioP2;P2;SDS_P1;SDS_P2;PMS_P1;PMS_P2;Temp;Humidity;BMP_temperature;BMP_pressure;BME280_temperature;BME280_humidity;BME280_pressure;Samples;Min_cycle;Max_cycle;Signal;HPM_P1;HPM_P2
2022/05/18 00:02:24;;;;;;;;;;;;;;;14.55;64.57;101389.88;4958334;28;121719;-46
2022/05/18 00:04:49;;;;;;;;;;;;;;;14.54;64.53;101398.28;4957556;28;98906;-46
2022/05/18 00:07:15;;;;;;;;;;;;;;;14.52;64.81;101390.41;4959057;28;121787;-57
2022/05/18 00:09:41;;;;;;;;;;;;;;;14.51;64.67;101402.34;4953804;28;109664;-58
2022/05/18 00:12:08;;;;;;;;;;;;;;;14.49;64.60;101402.59;4945138;28;128511;-58
2022/05/18 00:14:34;;;;;;;;;;;;;;;14.46;64.85;101400.44;4941305;28;98186;-46
2022/05/18 00:17:03;;;;;;;;;;;;;;;14.43;64.76;101409.09;4960448;28;109786;-47
2022/05/18 00:19:29;;;;;;;;;;;;;;;14.41;64.71;101408.53;4958295;28;98273;-46
2022/05/18 00:21:55;;;;;;;;;;;;;;;14.39;64.64;101412.63;4959042;28;127095;-48
2022/05/18 00:24:21;;;;;;;;;;;;;;;14.36;64.97;101407.75;4946048;28;126789;-58
2022/05/18 00:26:47;;;;;;;;;;;;;;;14.31;64.71;101413.97;4956487;28;121020;-58
2022/05/18 00:29:13;;;;;;;;;;;;;;;14.28;65.09;101417.22;4957689;28;126737;-45
2022/05/18 00:31:41;;;;;;;;;;;;;;;14.25;64.82;101426.69;4958998;28;128421;-46
2022/05/18 00:34:07;;;;;;;;;;;;;;;14.23;64.78;101428.88;4949386;28;97977;-46
2022/05/18 00:36:33;;;;;;;;;;;;;;;14.19;65.03;101429.69;4944761;28;122234;-47
2022/05/18 00:38:59;;;;;;;;;;;;;;;14.13;64.96;101428.84;4955356;28;124995;-58
2022/05/18 00:41:25;;;;;;;;;;;;;;;14.08;65.08;101428.03;4938235;28;127822;-58
2022/05/18 00:43:51;;;;;;;;;;;;;;;14.05;65.44;101432.06;4939160;28;97934;-58
2022/05/18 00:46:17;;;;;;;;;;;;;;;14.03;65.13;101430.72;4947842;28;98124;-58
2022/05/18 00:48:43;;;;;;;;;;;;;;;14.00;65.43;101429.38;4942965;28;105535;-47
2022/05/18 00:51:31;;;;;;;;;;;;;;;13.98;65.27;101428.81;4939208;28;97987;-47
2022/05/18 00:53:59;;;;;;;;;;;;;;;13.95;65.21;101430.16;4945121;28;128341;-47
2022/05/18 00:56:35;;;;;;;;;;;;;;;13.93;65.30;101429.59;4956133;28;113110;-58
2022/05/18 00:59:05;;;;;;;;;;;;;;;13.99;64.85;101433.16;4956549;28;128103;-57
2022/05/18 01:01:30;;;;;;;;;;;;;;;14.05;65.13;101431.28;4956854;28;98199;-57
2022/05/18 01:03:56;;;;;;;;;;;;;;;14.11;65.12;101436.44;4958178;28;127460;-57
2022/05/18 01:06:54;;;;;;;;;;;;;;;14.17;65.06;101446.22;4946638;28;101765;-57
2022/05/18 01:09:28;;;;;;;;;;;;;;;14.22;64.67;101440.78;4936636;28;115791;-46
2022/05/18 01:11:54;;;;;;;;;;;;;;;14.28;64.26;101449.75;4939334;28;98422;-58
2022/05/18 01:14:25;;;;;;;;;;;;;;;14.30;64.27;101450.28;4953660;28;127552;-46
2022/05/18 01:16:51;;;;;;;;;;;;;;;14.31;64.32;101457.38;4938678;28;117676;-45
2022/05/18 01:19:37;;;;;;;;;;;;;;;14.33;64.51;101455.19;4943453;28;128178;-57
2022/05/18 01:22:13;;;;;;;;;;;;;;;14.34;64.00;101459.53;4954202;28;100252;-46
2022/05/18 01:24:53;;;;;;;;;;;;;;;14.32;64.09;101461.69;4953709;28;123547;-58
2022/05/18 01:27:19;;;;;;;;;;;;;;;14.33;64.11;101476.88;4957517;28;115806;-45
2022/05/18 01:29:45;;;;;;;;;;;;;;;14.28;64.22;101479.59;4939888;28;128128;-57
2022/05/18 01:32:13;;;;;;;;;;;;;;;14.23;64.68;101477.69;4941170;28;128166;-57
2022/05/18 01:34:42;;;;;;;;;;;;;;;14.20;64.73;101480.94;4955221;28;128406;-46
2022/05/18 01:37:09;;;;;;;;;;;;;;;14.21;64.93;101495.28;4962943;28;97961;-45
2022/05/18 01:39:50;;;;;;;;;;;;;;;14.21;65.49;101495.28;4948959;28;99235;-48
2022/05/18 01:42:29;;;;;;;;;;;;;;;14.22;66.48;101496.91;4941563;28;99145;-47
2022/05/18 01:44:55;;;;;;;;;;;;;;;14.26;66.00;101495.31;4940401;28;120201;-51
2022/05/18 01:47:21;;;;;;;;;;;;;;;14.29;66.15;101504.81;4941752;28;121081;-46
2022/05/18 01:49:47;;;;;;;;;;;;;;;14.32;65.89;101512.41;4957281;28;127947;-46
2022/05/18 01:52:13;;;;;;;;;;;;;;;14.33;66.53;101501.28;4960162;28;111726;-58
2022/05/18 01:54:41;;;;;;;;;;;;;;;14.36;66.00;101502.66;4942363;28;98342;-58
2022/05/18 01:57:07;;;;;;;;;;;;;;;14.40;66.26;101511.91;4961982;28;121920;-58
2022/05/18 01:59:34;;;;;;;;;;;;;;;14.43;66.61;101516.78;4959290;28;128072;-58
2022/05/18 02:02:00;;;;;;;;;;;;;;;14.44;66.53;101518.41;4961083;28;124609;-46
2022/05/18 02:04:26;;;;;;;;;;;;;;;14.45;66.30;101522.75;4959480;28;126894;-58
2022/05/18 02:06:52;;;;;;;;;;;;;;;14.48;66.85;101524.94;4961858;28;97790;-58
2022/05/18 02:09:19;;;;;;;;;;;;;;;14.46;66.81;101529.78;4949943;28;99290;-46
2022/05/18 02:11:45;;;;;;;;;;;;;;;14.46;66.41;101533.34;4942287;28;99542;-46
2022/05/18 02:14:11;;;;;;;;;;;;;;;14.43;66.80;101535.78;4967457;28;127445;-47
2022/05/18 02:16:37;;;;;;;;;;;;;;;14.42;66.86;101531.41;4962226;28;97843;-46
2022/05/18 02:19:03;;;;;;;;;;;;;;;14.36;66.73;101536.03;4951176;28;118494;-58
2022/05/18 02:21:29;;;;;;;;;;;;;;;14.35;66.78;101541.72;4940334;28;127934;-46
2022/05/18 02:23:55;;;;;;;;;;;;;;;14.31;66.83;101536.00;4940418;28;127840;-58
2022/05/18 02:26:21;;;;;;;;;;;;;;;14.29;66.34;101535.44;4941680;28;121629;-57
2022/05/18 02:28:47;;;;;;;;;;;;;;;14.26;66.37;101527.84;4946933;28;98336;-58
2022/05/18 02:31:13;;;;;;;;;;;;;;;14.23;66.55;101522.97;4959615;28;98314;-56
2022/05/18 02:33:39;;;;;;;;;;;;;;;14.20;66.41;101527.03;4960263;28;126178;-57
2022/05/18 02:36:07;;;;;;;;;;;;;;;14.17;66.31;101540.28;4960100;28;122481;-47
2022/05/18 02:38:33;;;;;;;;;;;;;;;14.14;66.40;101533.50;4959632;28;98390;-58
2022/05/18 02:40:59;;;;;;;;;;;;;;;14.12;66.12;101540.28;4960418;28;121267;-58
2022/05/18 02:43:26;;;;;;;;;;;;;;;14.11;66.28;101550.31;4959502;28;97957;-58
2022/05/18 02:46:11;;;;;;;;;;;;;;;14.09;66.15;101549.75;4960942;28;97704;-46
2022/05/18 02:48:37;;;;;;;;;;;;;;;14.05;66.08;101554.06;4944745;28;118990;-45
2022/05/18 02:51:04;;;;;;;;;;;;;;;14.04;66.08;101551.63;4959266;28;98465;-45
2022/05/18 02:53:30;;;;;;;;;;;;;;;13.99;66.02;101550.53;4960914;28;98707;-48
2022/05/18 02:56:08;;;;;;;;;;;;;;;13.99;66.17;101566.78;4961348;28;107326;-47
2022/05/18 02:58:37;;;;;;;;;;;;;;;13.98;66.03;101562.44;4957653;28;98413;-58
2022/05/18 03:01:05;;;;;;;;;;;;;;;13.97;65.90;101563.53;4960430;28;98724;-58
2022/05/18 03:03:31;;;;;;;;;;;;;;;14.00;66.05;101575.75;4960174;28;98821;-45
2022/05/18 03:05:57;;;;;;;;;;;;;;;14.01;65.87;101577.38;4945551;28;99419;-46
2022/05/18 03:08:22;;;;;;;;;;;;;;;14.02;65.95;101578.19;4948639;28;125076;-57
2022/05/18 03:10:48;;;;;;;;;;;;;;;14.04;65.72;101584.97;4940139;28;128303;-46
2022/05/18 03:13:14;;;;;;;;;;;;;;;14.06;65.59;101579.28;4940636;28;99772;-57
2022/05/18 03:15:40;;;;;;;;;;;;;;;14.06;65.96;101577.38;4940245;28;123053;-45
2022/05/18 03:18:06;;;;;;;;;;;;;;;14.06;65.76;101582.81;4940029;28;128154;-58
2022/05/18 03:23:35;;;;;;;;;;;;;;;14.03;65.67;101580.63;4957097;28;98021;-46
2022/05/18 03:26:11;;;;;;;;;;;;;;;14.02;65.76;101580.88;4959841;28;98785;-58
2022/05/18 03:28:38;;;;;;;;;;;;;;;14.00;65.53;101581.16;4958113;28;107209;-47
2022/05/18 03:31:05;;;;;;;;;;;;;;;13.96;65.29;101583.56;4942654;28;98294;-57
2022/05/18 03:33:31;;;;;;;;;;;;;;;13.94;65.21;101591.16;4960036;28;97943;-58
2022/05/18 03:35:56;;;;;;;;;;;;;;;13.91;65.11;101588.97;4948708;28;125210;-58
2022/05/18 03:38:22;;;;;;;;;;;;;;;13.90;64.80;101583.81;4945531;28;127826;-58
2022/05/18 03:40:48;;;;;;;;;;;;;;;13.88;64.91;101586.78;4952398;28;126961;-45
2022/05/18 03:43:14;;;;;;;;;;;;;;;13.86;64.98;101590.81;4959180;28;126929;-47
2022/05/18 03:45:40;;;;;;;;;;;;;;;13.84;64.86;101587.56;4960126;28;108756;-58
2022/05/18 03:48:07;;;;;;;;;;;;;;;13.84;64.86;101593.00;4958173;28;99026;-58
2022/05/18 03:50:33;;;;;;;;;;;;;;;13.82;64.51;101598.66;4942613;28;99269;-47
2022/05/18 03:53:00;;;;;;;;;;;;;;;13.81;64.39;101605.16;4943419;28;97942;-45
2022/05/18 03:55:26;;;;;;;;;;;;;;;13.82;64.66;101601.38;4959030;28;98415;-58
2022/05/18 03:57:52;;;;;;;;;;;;;;;13.84;64.45;101604.66;4958039;28;122213;-46
2022/05/18 04:00:19;;;;;;;;;;;;;;;13.85;63.83;101603.56;4953981;28;127732;-57
2022/05/18 04:02:47;;;;;;;;;;;;;;;13.87;63.96;101614.13;4960464;28;98159;-58
2022/05/18 04:05:14;;;;;;;;;;;;;;;13.86;63.81;101605.19;4959230;28;97913;-47
2022/05/18 04:07:40;;;;;;;;;;;;;;;13.89;63.89;101612.00;4959650;28;124296;-48
2022/05/18 04:10:06;;;;;;;;;;;;;;;13.89;63.54;101612.00;4944785;28;127555;-46
2022/05/18 04:12:32;;;;;;;;;;;;;;;13.89;63.42;101614.69;4939265;28;101953;-46
2022/05/18 04:14:58;;;;;;;;;;;;;;;13.89;63.33;101612.00;4939735;28;122691;-57
2022/05/18 04:17:25;;;;;;;;;;;;;;;13.89;63.09;101614.69;4939973;28;99080;-58
2022/05/18 04:19:51;;;;;;;;;;;;;;;13.89;62.81;101615.50;4940049;28;99041;-47
2022/05/18 04:22:18;;;;;;;;;;;;;;;13.88;62.57;101619.31;4940642;28;98655;-58
2022/05/18 04:24:44;;;;;;;;;;;;;;;13.88;61.94;101621.22;4938927;28;119362;-58
2022/05/18 04:27:10;;;;;;;;;;;;;;;13.87;62.38;101614.13;4941519;28;127766;-59
2022/05/18 04:29:37;;;;;;;;;;;;;;;13.87;62.19;101622.25;4959545;28;98927;-46
2022/05/18 04:32:04;;;;;;;;;;;;;;;13.89;61.92;101630.97;4942327;28;100645;-46
2022/05/18 04:34:29;;;;;;;;;;;;;;;13.92;61.90;101616.91;4936698;28;115782;-59
2022/05/18 04:36:55;;;;;;;;;;;;;;;13.92;61.46;101623.13;4936158;28;111624;-58
2022/05/18 04:39:21;;;;;;;;;;;;;;;13.94;61.53;101625.56;4935186;28;125975;-46
2022/05/18 04:41:47;;;;;;;;;;;;;;;13.99;61.56;101631.03;4935190;28;127524;-47
2022/05/18 04:44:13;;;;;;;;;;;;;;;14.06;61.30;101633.50;4938680;28;115074;-58
2022/05/18 04:46:42;;;;;;;;;;;;;;;14.14;60.93;101627.56;4935933;28;128634;-47
2022/05/18 04:49:10;;;;;;;;;;;;;;;14.24;60.56;101631.16;4937695;28;99149;-58
2022/05/18 04:51:35;;;;;;;;;;;;;;;14.37;60.60;101634.47;4933875;28;110887;-47
2022/05/18 04:54:01;;;;;;;;;;;;;;;14.51;60.19;101637.56;4936944;28;122207;-58
2022/05/18 04:56:27;;;;;;;;;;;;;;;14.65;59.55;101642.22;4935576;28;112323;-47
2022/05/18 04:58:53;;;;;;;;;;;;;;;14.79;59.56;101637.09;4935205;28;127875;-46
2022/05/18 05:01:19;;;;;;;;;;;;;;;14.87;58.83;101642.00;4935573;28;97908;-58
2022/05/18 05:03:45;;;;;;;;;;;;;;;14.88;58.13;101646.34;4939510;28;115415;-58
2022/05/18 05:06:11;;;;;;;;;;;;;;;14.91;58.44;101645.00;4938348;28;128571;-58
2022/05/18 05:08:37;;;;;;;;;;;;;;;14.96;57.74;101645.81;4942178;28;128749;-47
2022/05/18 05:11:04;;;;;;;;;;;;;;;15.03;57.88;101645.56;4962176;28;97809;-46
2022/05/18 05:13:30;;;;;;;;;;;;;;;15.20;57.83;101645.31;4950653;28;97688;-46
2022/05/18 05:16:07;;;;;;;;;;;;;;;15.35;57.33;101648.06;4942438;28;125883;-58
2022/05/18 05:18:33;;;;;;;;;;;;;;;15.54;57.19;101648.34;4942586;28;98525;-58
2022/05/18 05:20:59;;;;;;;;;;;;;;;15.70;56.65;101646.47;4942445;28;98060;-58
2022/05/18 05:23:26;;;;;;;;;;;;;;;15.78;56.50;101651.34;4952295;28;98277;-57
2022/05/18 05:25:52;;;;;;;;;;;;;;;15.89;56.20;101642.09;4962209;28;99437;-48
2022/05/18 05:28:18;;;;;;;;;;;;;;;16.00;56.22;101647.53;4958455;28;99843;-46
2022/05/18 05:30:44;;;;;;;;;;;;;;;16.02;56.17;101645.34;4942352;28;121653;-46
2022/05/18 05:33:11;;;;;;;;;;;;;;;16.10;55.55;101650.19;4950712;28;98724;-46
2022/05/18 05:35:40;;;;;;;;;;;;;;;16.19;54.86;101645.81;4952758;28;98941;-47
2022/05/18 05:38:07;;;;;;;;;;;;;;;16.30;54.60;101654.78;4958605;28;98274;-58
2022/05/18 05:40:33;;;;;;;;;;;;;;;16.52;54.27;101647.06;4943691;28;98205;-47
2022/05/18 05:42:59;;;;;;;;;;;;;;;16.83;53.85;101655.13;4947627;28;122378;-46
2022/05/18 05:45:25;;;;;;;;;;;;;;;17.08;53.44;101654.16;4960916;28;128570;-47
2022/05/18 05:47:51;;;;;;;;;;;;;;;17.39;52.71;101652.84;4960274;28;127561;-58
2022/05/18 05:50:16;;;;;;;;;;;;;;;17.69;52.17;101650.97;4961608;28;98646;-57
2022/05/18 05:52:42;;;;;;;;;;;;;;;17.92;51.94;101660.34;4960857;28;97902;-46
2022/05/18 05:55:09;;;;;;;;;;;;;;;18.11;51.68;101660.41;4961927;28;100315;-48
2022/05/18 05:57:34;;;;;;;;;;;;;;;18.54;51.19;101661.25;4962027;28;109999;-46
2022/05/18 06:00:02;;;;;;;;;;;;;;;19.35;49.06;101659.34;4942619;28;127662;-49
2022/05/18 06:02:28;;;;;;;;;;;;;;;20.58;47.58;101660.69;4943119;28;97828;-47
2022/05/18 06:04:55;;;;;;;;;;;;;;;21.10;46.95;101665.84;4961176;28;99868;-58
2022/05/18 06:07:21;;;;;;;;;;;;;;;21.59;46.72;101669.66;4961245;28;126868;-58
2022/05/18 06:09:47;;;;;;;;;;;;;;;22.36;45.41;101673.09;4959793;28;98911;-47
2022/05/18 06:12:12;;;;;;;;;;;;;;;22.12;43.21;101671.53;4960459;28;122712;-58
2022/05/18 06:14:42;;;;;;;;;;;;;;;22.20;44.35;101680.97;4960086;28;115817;-46
2022/05/18 06:17:08;;;;;;;;;;;;;;;22.34;44.75;101680.88;4959216;28;127926;-58
2022/05/18 06:19:34;;;;;;;;;;;;;;;22.44;43.58;101678.66;4962288;28;98129;-58
2022/05/18 06:22:00;;;;;;;;;;;;;;;22.60;42.48;101679.03;4961859;28;97997;-58
2022/05/18 06:24:26;;;;;;;;;;;;;;;22.48;43.46;101685.13;4959197;28;98943;-46
2022/05/18 06:26:54;;;;;;;;;;;;;;;22.57;43.33;101685.16;4960240;28;128855;-46
2022/05/18 06:29:21;;;;;;;;;;;;;;;22.66;43.36;101677.72;4952754;28;124115;-59
2022/05/18 06:31:47;;;;;;;;;;;;;;;22.87;43.02;101680.69;4962072;28;98040;-58
2022/05/18 06:34:13;;;;;;;;;;;;;;;23.23;42.66;101690.59;4946471;28;98514;-59
2022/05/18 06:36:38;;;;;;;;;;;;;;;23.66;41.85;101685.09;4946869;28;99127;-58
2022/05/18 06:39:04;;;;;;;;;;;;;;;24.26;40.64;101691.53;4944385;28;126812;-47
2022/05/18 06:41:32;;;;;;;;;;;;;;;24.52;40.46;101694.19;4946593;28;107356;-46
2022/05/18 06:44:02;;;;;;;;;;;;;;;24.79;40.15;101694.84;4953214;28;98401;-48
2022/05/18 06:46:29;;;;;;;;;;;;;;;25.01;39.40;101693.72;4960345;28;98083;-46
2022/05/18 06:48:55;;;;;;;;;;;;;;;25.20;38.96;101703.19;4960231;28;124534;-46
2022/05/18 06:51:23;;;;;;;;;;;;;;;25.31;37.96;101702.75;4951945;28;97747;-48
2022/05/18 06:53:51;;;;;;;;;;;;;;;25.51;38.52;101704.69;4951890;28;98426;-59
2022/05/18 06:56:19;;;;;;;;;;;;;;;25.76;38.26;101690.97;4956088;28;98279;-59
2022/05/18 06:58:47;;;;;;;;;;;;;;;26.13;37.73;101697.38;4960926;28;98523;-58
2022/05/18 07:01:13;;;;;;;;;;;;;;;26.15;36.41;101695.09;4960478;28;98302;-47
2022/05/18 07:03:39;;;;;;;;;;;;;;;26.35;36.31;101701.66;4952896;28;99003;-58
2022/05/18 07:06:05;;;;;;;;;;;;;;;26.62;36.64;101695.47;4940890;28;127716;-47
2022/05/18 07:08:31;;;;;;;;;;;;;;;26.46;36.07;101700.09;4945037;28;98305;-48
2022/05/18 07:10:57;;;;;;;;;;;;;;;26.81;36.44;101697.63;4940613;28;115735;-47
2022/05/18 07:13:23;;;;;;;;;;;;;;;27.01;36.10;101695.88;4946870;28;100633;-57
2022/05/18 07:15:49;;;;;;;;;;;;;;;27.19;35.94;101696.41;4960200;28;110671;-48
2022/05/18 07:18:15;;;;;;;;;;;;;;;27.51;35.88;101700.09;4961408;28;98043;-58
2022/05/18 07:20:41;;;;;;;;;;;;;;;27.80;35.68;101710.00;4950385;28;97710;-47
2022/05/18 07:23:07;;;;;;;;;;;;;;;27.23;33.94;101702.84;4940039;28;100418;-47
2022/05/18 07:25:33;;;;;;;;;;;;;;;27.73;34.11;101707.00;4941861;28;128110;-48
2022/05/18 07:27:59;;;;;;;;;;;;;;;28.01;34.86;101703.41;4941387;28;127630;-58
2022/05/18 07:30:25;;;;;;;;;;;;;;;28.20;34.45;101708.25;4946946;28;97976;-58
2022/05/18 07:32:51;;;;;;;;;;;;;;;28.38;34.53;101706.75;4958939;28;126467;-49
2022/05/18 07:35:16;;;;;;;;;;;;;;;28.56;34.28;101705.19;4957891;28;129658;-58
2022/05/18 07:37:42;;;;;;;;;;;;;;;28.59;33.67;101707.25;4959416;28;126359;-58
2022/05/18 07:40:09;;;;;;;;;;;;;;;28.75;33.98;101703.63;4954031;28;97857;-48
2022/05/18 07:42:35;;;;;;;;;;;;;;;28.97;33.95;101696.59;4939192;28;127669;-51
2022/05/18 07:45:01;;;;;;;;;;;;;;;29.25;34.04;101694.44;4939529;28;98873;-49
2022/05/18 07:47:30;;;;;;;;;;;;;;;29.45;32.69;101697.22;4939309;28;128209;-58
2022/05/18 07:49:56;;;;;;;;;;;;;;;29.71;32.58;101697.34;4943189;28;99229;-59
2022/05/18 07:52:22;;;;;;;;;;;;;;;30.12;31.97;101688.53;4941934;28;113424;-48
2022/05/18 07:54:48;;;;;;;;;;;;;;;30.70;31.85;101694.63;4956033;28;128233;-50
2022/05/18 07:57:15;;;;;;;;;;;;;;;31.32;32.66;101693.47;4957403;28;126316;-61
2022/05/18 07:59:41;;;;;;;;;;;;;;;31.70;31.92;101693.09;4941101;28;99082;-52
2022/05/18 08:02:07;;;;;;;;;;;;;;;32.19;32.25;101691.16;4972831;28;128789;-51
2022/05/18 08:04:33;;;;;;;;;;;;;;;32.78;31.69;101691.97;4958774;28;127691;-51
2022/05/18 08:06:59;;;;;;;;;;;;;;;33.34;31.89;101690.63;4944061;28;127615;-49
2022/05/18 08:09:25;;;;;;;;;;;;;;;33.93;30.86;101679.97;4956020;28;122398;-51
2022/05/18 08:17:21;;;;;;;;;;;;;;;35.53;28.80;101672.38;4953682;28;97893;-59
2022/05/18 08:19:47;;;;;;;;;;;;;;;35.96;28.70;101674.03;4959556;28;98180;-49
2022/05/18 08:22:13;;;;;;;;;;;;;;;36.19;27.34;101674.25;4942384;28;98990;-51
2022/05/18 08:24:39;;;;;;;;;;;;;;;36.70;27.08;101680.97;4943546;28;125162;-49
2022/05/18 08:27:06;;;;;;;;;;;;;;;37.30;27.08;101673.81;4942091;28;127645;-51
2022/05/18 08:29:32;;;;;;;;;;;;;;;37.79;26.42;101671.47;4956994;28;124793;-60
2022/05/18 08:31:59;;;;;;;;;;;;;;;37.87;25.73;101663.72;4959092;28;111588;-52
2022/05/18 08:34:25;;;;;;;;;;;;;;;38.10;25.62;101665.75;4959407;28;97839;-52
2022/05/18 08:36:51;;;;;;;;;;;;;;;38.60;25.13;101662.00;4956768;28;125896;-53
2022/05/18 08:39:17;;;;;;;;;;;;;;;39.12;25.04;101658.50;4951027;28;97811;-60
2022/05/18 08:41:47;;;;;;;;;;;;;;;39.24;23.15;101651.44;4938649;28;98975;-60
2022/05/18 08:44:31;;;;;;;;;;;;;;;39.58;24.16;101653.03;4939824;28;98855;-51
2022/05/18 08:47:21;;;;;;;;;;;;;;;40.03;24.10;101657.97;4969108;28;97909;-60
2022/05/18 08:49:57;;;;;;;;;;;;;;;40.44;22.57;101657.25;4956928;28;97980;-51
2022/05/18 08:52:26;;;;;;;;;;;;;;;40.76;22.77;101650.75;4958769;28;99193;-60
2022/05/18 08:55:03;;;;;;;;;;;;;;;40.89;22.76;101645.09;4957524;28;98563;-52
2022/05/18 08:57:33;;;;;;;;;;;;;;;41.10;22.60;101641.63;4956360;28;113503;-60
2022/05/18 09:00:05;;;;;;;;;;;;;;;41.24;22.19;101633.97;4956357;28;98131;-51
2022/05/18 09:02:32;;;;;;;;;;;;;;;41.39;22.54;101638.69;4957808;28;98421;-52
2022/05/18 09:05:07;;;;;;;;;;;;;;;41.41;22.14;101630.56;4957724;28;128150;-49
2022/05/18 09:07:42;;;;;;;;;;;;;;;41.70;21.56;101635.28;4953938;28;102740;-60
2022/05/18 09:10:26;;;;;;;;;;;;;;;41.07;20.50;101625.59;4935495;28;98604;-59
2022/05/18 09:12:52;;;;;;;;;;;;;;;39.83;21.97;101619.38;4950072;28;99038;-58
2022/05/18 09:15:40;;;;;;;;;;;;;;;39.13;22.45;101615.00;4958768;28;98668;-47
2022/05/18 09:18:17;;;;;;;;;;;;;;;38.68;23.01;101614.78;4957361;28;98717;-59
2022/05/18 09:20:43;;;;;;;;;;;;;;;37.92;22.52;101614.63;4955237;28;101026;-59
2022/05/18 09:23:29;;;;;;;;;;;;;;;36.53;23.58;101606.97;4959137;28;99288;-51
2022/05/18 09:26:12;;;;;;;;;;;;;;;37.44;23.08;101601.75;4938043;28;123795;-47
2022/05/18 09:29:16;;;;;;;;;;;;;;;38.57;23.03;101615.00;4957769;28;98160;-47
2022/05/18 09:32:01;;;;;;;;;;;;;;;39.78;22.05;101617.13;4957302;28;98175;-51
2022/05/18 09:34:30;;;;;;;;;;;;;;;40.67;21.04;101619.53;4958768;28;98629;-59
2022/05/18 09:37:14;;;;;;;;;;;;;;;40.89;20.16;101625.31;4957017;28;98979;-48
2022/05/18 09:39:43;;;;;;;;;;;;;;;41.21;19.42;101624.34;4957986;28;98120;-59
2022/05/18 09:42:14;;;;;;;;;;;;;;;41.61;19.96;101621.81;4939526;28;97786;-59
2022/05/18 09:44:40;;;;;;;;;;;;;;;39.79;20.10;101612.25;4940453;28;98264;-60
2022/05/18 09:47:06;;;;;;;;;;;;;;;40.84;19.54;101612.56;4958883;28;102101;-48
2022/05/18 09:49:44;;;;;;;;;;;;;;;41.12;19.90;101610.91;4956074;28;121724;-47
2022/05/18 09:52:10;;;;;;;;;;;;;;;39.65;20.99;101607.72;4956187;28;99637;-59
2022/05/18 09:54:36;;;;;;;;;;;;;;;41.27;20.23;101611.22;4956592;28;103388;-51
2022/05/18 09:57:06;;;;;;;;;;;;;;;41.43;19.51;101605.47;4956076;28;98785;-50
2022/05/18 09:59:35;;;;;;;;;;;;;;;41.74;19.63;101602.00;4962256;28;98285;-59
2022/05/18 10:07:49;;;;;;;;;;;;;;;39.67;20.34;101588.34;4960386;28;98229;-47
2022/05/18 10:10:16;;;;;;;;;;;;;;;39.36;21.05;101585.91;4960032;28;97852;-59
2022/05/18 10:12:46;;;;;;;;;;;;;;;39.78;20.46;101586.09;4956401;28;98981;-49
2022/05/18 10:15:32;;;;;;;;;;;;;;;39.68;20.22;101587.16;4958843;28;99028;-48
2022/05/18 10:18:19;;;;;;;;;;;;;;;40.37;20.16;101586.91;4935493;28;99157;-48
2022/05/18 10:21:18;;;;;;;;;;;;;;;40.74;20.23;101579.75;4957923;28;97824;-59
2022/05/18 10:24:01;;;;;;;;;;;;;;;40.73;20.09;101576.16;4944950;28;98213;-49
2022/05/18 10:26:36;;;;;;;;;;;;;;;36.75;22.67;101571.00;4964423;28;98537;-58
2022/05/18 10:29:11;;;;;;;;;;;;;;;38.18;22.15;101571.53;4949808;28;98038;-48
2022/05/18 10:31:43;;;;;;;;;;;;;;;38.80;21.31;101574.72;4945453;28;98435;-59
2022/05/18 10:34:13;;;;;;;;;;;;;;;38.66;20.86;101575.00;4956861;28;97862;-58
2022/05/18 10:36:50;;;;;;;;;;;;;;;39.07;20.42;101576.50;4940845;28;122117;-51
2022/05/18 10:39:46;;;;;;;;;;;;;;;36.34;22.49;101571.88;4940980;28;122123;-49
2022/05/18 10:42:28;;;;;;;;;;;;;;;35.05;23.39;101574.19;4946447;28;126721;-48
2022/05/18 10:44:55;;;;;;;;;;;;;;;34.07;24.53;101560.94;4960757;28;97838;-50
2022/05/18 10:47:26;;;;;;;;;;;;;;;33.09;25.56;101555.72;4960814;28;98605;-47
2022/05/18 10:50:13;;;;;;;;;;;;;;;34.01;25.21;101552.19;4961776;28;97869;-48
2022/05/18 10:52:39;;;;;;;;;;;;;;;35.20;24.18;101564.50;4947183;28;98409;-47
2022/05/18 10:55:16;;;;;;;;;;;;;;;35.97;23.54;101564.28;4974093;28;121860;-48
2022/05/18 10:57:55;;;;;;;;;;;;;;;35.21;24.26;101560.47;4943978;28;101317;-58
2022/05/18 11:00:21;;;;;;;;;;;;;;;34.13;25.25;101560.16;4950401;28;98496;-56
2022/05/18 11:02:57;;;;;;;;;;;;;;;32.87;26.43;101554.84;4949561;28;98741;-58
2022/05/18 11:05:44;;;;;;;;;;;;;;;31.72;27.35;101559.78;4958596;28;97968;-47
2022/05/18 11:08:15;;;;;;;;;;;;;;;30.65;28.08;101553.06;4958998;28;98355;-59
2022/05/18 11:11:03;;;;;;;;;;;;;;;30.88;27.89;101552.16;4960826;28;97748;-59
2022/05/18 11:13:35;;;;;;;;;;;;;;;31.96;26.96;101547.22;4960383;28;97804;-47
2022/05/18 11:16:20;;;;;;;;;;;;;;;32.60;26.86;101548.78;4951542;28;97865;-47
2022/05/18 11:19:05;;;;;;;;;;;;;;;31.69;27.21;101548.59;4958621;28;98176;-48
2022/05/18 11:21:42;;;;;;;;;;;;;;;31.09;27.83;101541.28;4957498;28;98739;-48
2022/05/18 11:24:40;;;;;;;;;;;;;;;31.74;27.25;101548.22;4938517;28;98706;-48
2022/05/18 11:27:15;;;;;;;;;;;;;;;31.68;27.10;101541.44;4940029;28;121973;-47
2022/05/18 11:29:53;;;;;;;;;;;;;;;31.93;27.04;101538.84;4955295;28;98802;-47
2022/05/18 11:32:34;;;;;;;;;;;;;;;31.55;27.42;101532.56;4946199;28;98004;-49
2022/05/18 11:35:21;;;;;;;;;;;;;;;32.28;27.00;101535.47;4957663;28;124031;-59
2022/05/18 11:38:09;;;;;;;;;;;;;;;32.62;26.02;101538.84;4959219;28;97853;-47
2022/05/18 11:40:41;;;;;;;;;;;;;;;33.25;25.86;101542.19;4960459;28;98770;-48
2022/05/18 11:43:28;;;;;;;;;;;;;;;33.52;25.82;101539.03;4948917;28;98377;-60
2022/05/18 11:46:18;;;;;;;;;;;;;;;31.77;26.60;101545.47;4940220;28;98401;-58
2022/05/18 11:48:52;;;;;;;;;;;;;;;32.08;26.49;101539.75;4974029;28;113924;-58
2022/05/18 11:51:44;;;;;;;;;;;;;;;32.93;26.05;101528.16;4958333;28;98318;-60
2022/05/18 11:54:39;;;;;;;;;;;;;;;32.31;26.90;101526.31;4949196;28;126863;-60
2022/05/18 11:57:27;;;;;;;;;;;;;;;32.48;26.60;101525.63;4937180;28;98354;-59
2022/05/18 12:00:01;;;;;;;;;;;;;;;32.53;26.34;101513.28;4957180;28;97980;-46
2022/05/18 12:02:38;;;;;;;;;;;;;;;33.07;25.97;101521.81;4954724;28;99391;-47
2022/05/18 12:05:10;;;;;;;;;;;;;;;33.29;25.79;101522.63;4953958;28;99448;-48
2022/05/18 12:08:01;;;;;;;;;;;;;;;32.48;26.35;101531.19;4960165;28;98441;-48
2022/05/18 12:10:38;;;;;;;;;;;;;;;31.51;27.67;101526.16;4959926;28;97867;-59
2022/05/18 12:13:31;;;;;;;;;;;;;;;32.15;27.11;101518.28;4954980;28;126356;-58
2022/05/18 12:16:08;;;;;;;;;;;;;;;31.56;28.05;101508.28;4951385;28;128311;-59
2022/05/18 12:18:42;;;;;;;;;;;;;;;31.67;28.11;101518.31;4940848;28;98085;-59
2022/05/18 12:21:14;;;;;;;;;;;;;;;31.18;28.53;101515.91;4938353;28;116795;-59
2022/05/18 12:23:44;;;;;;;;;;;;;;;30.63;28.97;101502.59;4969081;28;107685;-60
2022/05/18 12:26:10;;;;;;;;;;;;;;;30.69;28.84;101512.16;4939250;28;113293;-47
2022/05/18 12:28:35;;;;;;;;;;;;;;;31.63;27.81;101508.34;4957480;28;97662;-58
2022/05/18 12:31:01;;;;;;;;;;;;;;;32.04;27.09;101508.25;4964328;28;122107;-48
2022/05/18 12:33:33;;;;;;;;;;;;;;;32.60;26.15;101506.94;4951085;28;128695;-59
2022/05/18 12:36:05;;;;;;;;;;;;;;;33.47;26.25;101506.72;4959264;28;98251;-59
2022/05/18 12:38:36;;;;;;;;;;;;;;;34.16;26.20;101500.63;4959578;28;98073;-47
2022/05/18 12:41:09;;;;;;;;;;;;;;;34.63;25.57;101497.66;4955322;28;97992;-48
2022/05/18 12:43:48;;;;;;;;;;;;;;;34.85;24.93;101498.28;4966402;28;101932;-58
2022/05/18 12:46:14;;;;;;;;;;;;;;;34.18;25.16;101500.19;4956426;28;115349;-58
2022/05/18 12:48:53;;;;;;;;;;;;;;;34.49;25.51;101504.09;4958867;28;101924;-47
2022/05/18 12:51:31;;;;;;;;;;;;;;;34.40;25.16;101504.50;4958079;28;121014;-60
2022/05/18 12:54:10;;;;;;;;;;;;;;;34.65;25.40;101492.41;4958450;28;98154;-58
2022/05/18 12:56:36;;;;;;;;;;;;;;;33.62;25.92;101497.13;4946834;28;98572;-49
2022/05/18 12:59:10;;;;;;;;;;;;;;;33.01;25.90;101492.69;4959710;28;100009;-60
2022/05/18 13:01:41;;;;;;;;;;;;;;;32.73;26.25;101486.63;4943594;28;120353;-47
2022/05/18 13:04:10;;;;;;;;;;;;;;;32.70;26.76;101489.44;4952840;28;128113;-58